sensor_id;sensor_type;location;lat;lon;timestamp;pressure;altitude;pressure_sealevel;temperature;humidity
35888;BME280;21990;42.540;23.496;2024-01-30T00:01:05;95350.06;;;-0.69;77.10
35888;BME280;21990;42.540;23.496;2024-01-30T00:03:30;95349.66;;;-0.67;76.94
35888;BME280;21990;42.540;23.496;2024-01-30T00:05:56;95356.78;;;-0.70;76.81
35888;BME280;21990;42.540;23.496;2024-01-30T00:08:21;95352.91;;;-0.76;77.05
35888;BME280;21990;42.540;23.496;2024-01-30T00:10:47;95356.47;;;-0.75;76.73
35888;BME280;21990;42.540;23.496;2024-01-30T00:13:12;95345.91;;;-0.84;77.36
35888;BME280;21990;42.540;23.496;2024-01-30T00:15:39;95352.63;;;-0.85;76.81
35888;BME280;21990;42.540;23.496;2024-01-30T00:18:04;95354.31;;;-0.91;76.68
35888;BME280;21990;42.540;23.496;2024-01-30T00:20:30;95351.56;;;-0.91;76.80
35888;BME280;21990;42.540;23.496;2024-01-30T00:22:55;95358.72;;;-0.93;77.02
35888;BME280;21990;42.540;23.496;2024-01-30T00:25:21;95356.34;;;-0.95;77.15
35888;BME280;21990;42.540;23.496;2024-01-30T00:27:46;95357.91;;;-0.94;77.03
35888;BME280;21990;42.540;23.496;2024-01-30T00:30:12;95368.50;;;-1.19;78.35
35888;BME280;21990;42.540;23.496;2024-01-30T00:32:38;95369.53;;;-1.06;77.81
35888;BME280;21990;42.540;23.496;2024-01-30T00:35:03;95366.38;;;-1.08;77.98
35888;BME280;21990;42.540;23.496;2024-01-30T00:37:29;95365.25;;;-1.11;77.93
35888;BME280;21990;42.540;23.496;2024-01-30T00:39:56;95364.44;;;-1.11;78.20
35888;BME280;21990;42.540;23.496;2024-01-30T00:42:21;95359.31;;;-1.09;77.80
35888;BME280;21990;42.540;23.496;2024-01-30T00:44:49;95361.59;;;-1.04;77.83
35888;BME280;21990;42.540;23.496;2024-01-30T00:47:14;95352.09;;;-1.03;77.59
35888;BME280;21990;42.540;23.496;2024-01-30T00:49:40;95356.84;;;-1.04;77.63
35888;BME280;21990;42.540;23.496;2024-01-30T00:52:05;95350.56;;;-1.08;78.17
35888;BME280;21990;42.540;23.496;2024-01-30T00:54:31;95362.88;;;-1.12;78.04
35888;BME280;21990;42.540;23.496;2024-01-30T00:56:56;95357.53;;;-1.26;78.78
35888;BME280;21990;42.540;23.496;2024-01-30T00:59:22;95362.22;;;-1.23;78.77
35888;BME280;21990;42.540;23.496;2024-01-30T01:01:47;95357.13;;;-1.25;78.92
35888;BME280;21990;42.540;23.496;2024-01-30T01:04:13;95351.13;;;-1.20;78.71
35888;BME280;21990;42.540;23.496;2024-01-30T01:06:38;95353.53;;;-1.22;79.18
35888;BME280;21990;42.540;23.496;2024-01-30T01:09:04;95363.84;;;-1.26;78.40
35888;BME280;21990;42.540;23.496;2024-01-30T01:11:29;95362.22;;;-1.23;77.88
35888;BME280;21990;42.540;23.496;2024-01-30T01:13:55;95359.84;;;-1.21;77.78
35888;BME280;21990;42.540;23.496;2024-01-30T01:16:20;95360.38;;;-1.33;79.04
35888;BME280;21990;42.540;23.496;2024-01-30T01:18:46;95353.81;;;-1.47;79.68
35888;BME280;21990;42.540;23.496;2024-01-30T01:21:11;95354.19;;;-1.45;79.23
35888;BME280;21990;42.540;23.496;2024-01-30T01:23:37;95364.47;;;-1.45;79.39
35888;BME280;21990;42.540;23.496;2024-01-30T01:26:02;95355.75;;;-1.44;79.34
35888;BME280;21990;42.540;23.496;2024-01-30T01:28:28;95357.00;;;-1.52;79.76
35888;BME280;21990;42.540;23.496;2024-01-30T01:30:53;95359.72;;;-1.45;79.63
35888;BME280;21990;42.540;23.496;2024-01-30T01:33:24;95360.44;;;-1.37;78.89
35888;BME280;21990;42.540;23.496;2024-01-30T01:35:49;95364.78;;;-1.39;79.00
35888;BME280;21990;42.540;23.496;2024-01-30T01:38:15;95363.19;;;-1.37;78.96
35888;BME280;21990;42.540;23.496;2024-01-30T01:40:40;95358.41;;;-1.33;78.86
35888;BME280;21990;42.540;23.496;2024-01-30T01:43:06;95363.50;;;-1.31;78.69
35888;BME280;21990;42.540;23.496;2024-01-30T01:45:31;95354.81;;;-1.30;78.41
35888;BME280;21990;42.540;23.496;2024-01-30T01:47:57;95358.75;;;-1.31;78.60
35888;BME280;21990;42.540;23.496;2024-01-30T01:50:23;95360.03;;;-1.39;78.68
35888;BME280;21990;42.540;23.496;2024-01-30T01:52:50;95359.63;;;-1.37;78.41
35888;BME280;21990;42.540;23.496;2024-01-30T01:55:16;95369.47;;;-1.33;78.19
35888;BME280;21990;42.540;23.496;2024-01-30T01:57:47;95361.22;;;-1.36;78.14
35888;BME280;21990;42.540;23.496;2024-01-30T02:00:13;95366.44;;;-1.46;78.67
35888;BME280;21990;42.540;23.496;2024-01-30T02:02:39;95367.78;;;-1.61;79.63
35888;BME280;21990;42.540;23.496;2024-01-30T02:05:05;95377.19;;;-1.55;79.58
35888;BME280;21990;42.540;23.496;2024-01-30T02:07:31;95361.75;;;-1.49;79.17
35888;BME280;21990;42.540;23.496;2024-01-30T02:09:56;95362.97;;;-1.53;79.49
35888;BME280;21990;42.540;23.496;2024-01-30T02:12:22;95368.81;;;-1.48;79.15
35888;BME280;21990;42.540;23.496;2024-01-30T02:14:48;95362.50;;;-1.45;78.96
35888;BME280;21990;42.540;23.496;2024-01-30T02:17:15;95368.38;;;-1.42;78.97
35888;BME280;21990;42.540;23.496;2024-01-30T02:19:41;95370.69;;;-1.37;78.95
35888;BME280;21990;42.540;23.496;2024-01-30T02:22:07;95361.56;;;-1.34;79.04
35888;BME280;21990;42.540;23.496;2024-01-30T02:24:33;95359.25;;;-1.39;79.20
35888;BME280;21990;42.540;23.496;2024-01-30T02:26:58;95359.78;;;-1.52;80.33
35888;BME280;21990;42.540;23.496;2024-01-30T02:29:24;95359.72;;;-1.45;79.92
35888;BME280;21990;42.540;23.496;2024-01-30T02:31:50;95365.50;;;-1.69;79.70
35888;BME280;21990;42.540;23.496;2024-01-30T02:34:15;95354.94;;;-1.78;80.89
35888;BME280;21990;42.540;23.496;2024-01-30T02:36:44;95363.44;;;-1.62;80.28
35888;BME280;21990;42.540;23.496;2024-01-30T02:39:10;95363.38;;;-1.55;79.88
35888;BME280;21990;42.540;23.496;2024-01-30T02:41:36;95368.47;;;-1.50;79.81
35888;BME280;21990;42.540;23.496;2024-01-30T02:44:02;95351.28;;;-1.68;81.17
35888;BME280;21990;42.540;23.496;2024-01-30T02:46:28;95363.69;;;-1.83;81.43
35888;BME280;21990;42.540;23.496;2024-01-30T02:48:54;95359.63;;;-1.71;80.32
35888;BME280;21990;42.540;23.496;2024-01-30T02:51:19;95362.53;;;-1.89;78.85
35888;BME280;21990;42.540;23.496;2024-01-30T02:53:45;95358.59;;;-1.88;78.92
35888;BME280;21990;42.540;23.496;2024-01-30T02:56:10;95364.13;;;-1.88;78.27
35888;BME280;21990;42.540;23.496;2024-01-30T02:58:37;95366.88;;;-1.88;78.42
35888;BME280;21990;42.540;23.496;2024-01-30T03:01:03;95365.09;;;-1.68;78.50
35888;BME280;21990;42.540;23.496;2024-01-30T03:03:28;95356.31;;;-1.59;77.72
35888;BME280;21990;42.540;23.496;2024-01-30T03:05:54;95357.81;;;-1.51;77.56
35888;BME280;21990;42.540;23.496;2024-01-30T03:08:19;95358.84;;;-1.38;76.82
35888;BME280;21990;42.540;23.496;2024-01-30T03:10:45;95361.56;;;-1.34;76.01
35888;BME280;21990;42.540;23.496;2024-01-30T03:13:10;95355.22;;;-1.31;76.03
35888;BME280;21990;42.540;23.496;2024-01-30T03:15:36;95356.34;;;-1.25;75.63
35888;BME280;21990;42.540;23.496;2024-01-30T03:18:02;95350.38;;;-1.24;74.61
35888;BME280;21990;42.540;23.496;2024-01-30T03:20:31;95338.16;;;-1.26;74.26
35888;BME280;21990;42.540;23.496;2024-01-30T03:22:57;95341.91;;;-1.44;73.88
35888;BME280;21990;42.540;23.496;2024-01-30T03:25:22;95343.19;;;-1.52;74.29
35888;BME280;21990;42.540;23.496;2024-01-30T03:27:48;95349.38;;;-1.37;74.56
35888;BME280;21990;42.540;23.496;2024-01-30T03:30:14;95351.00;;;-1.43;74.28
35888;BME280;21990;42.540;23.496;2024-01-30T03:32:39;95350.81;;;-1.25;74.26
35888;BME280;21990;42.540;23.496;2024-01-30T03:35:05;95351.13;;;-1.20;73.71
35888;BME280;21990;42.540;23.496;2024-01-30T03:37:31;95351.25;;;-1.30;73.70
35888;BME280;21990;42.540;23.496;2024-01-30T03:39:56;95344.09;;;-1.28;73.44
35888;BME280;21990;42.540;23.496;2024-01-30T03:42:22;95343.34;;;-1.32;73.61
35888;BME280;21990;42.540;23.496;2024-01-30T03:44:48;95343.59;;;-1.19;73.64
35888;BME280;21990;42.540;23.496;2024-01-30T03:47:13;95339.19;;;-1.13;72.98
35888;BME280;21990;42.540;23.496;2024-01-30T03:49:39;95339.31;;;-1.24;73.35
35888;BME280;21990;42.540;23.496;2024-01-30T03:52:05;95337.78;;;-1.28;73.35
35888;BME280;21990;42.540;23.496;2024-01-30T03:54:30;95343.66;;;-1.23;72.96
35888;BME280;21990;42.540;23.496;2024-01-30T03:56:56;95346.00;;;-1.21;72.79
35888;BME280;21990;42.540;23.496;2024-01-30T03:59:21;95334.41;;;-1.09;72.32
35888;BME280;21990;42.540;23.496;2024-01-30T04:01:52;95339.41;;;-1.01;72.16
35888;BME280;21990;42.540;23.496;2024-01-30T04:04:18;95345.63;;;-0.93;72.07
35888;BME280;21990;42.540;23.496;2024-01-30T04:06:44;95334.09;;;-0.88;72.59
35888;BME280;21990;42.540;23.496;2024-01-30T04:09:10;95333.47;;;-0.99;71.40
35888;BME280;21990;42.540;23.496;2024-01-30T04:11:36;95337.19;;;-1.09;72.16
35888;BME280;21990;42.540;23.496;2024-01-30T04:14:02;95337.31;;;-0.93;72.02
35888;BME280;21990;42.540;23.496;2024-01-30T04:16:27;95344.81;;;-0.90;72.40
35888;BME280;21990;42.540;23.496;2024-01-30T04:18:53;95347.50;;;-0.83;71.75
35888;BME280;21990;42.540;23.496;2024-01-30T04:21:20;95341.69;;;-0.92;72.00
35888;BME280;21990;42.540;23.496;2024-01-30T04:23:46;95336.34;;;-1.06;72.95
35888;BME280;21990;42.540;23.496;2024-01-30T04:26:12;95343.59;;;-0.89;72.50
35888;BME280;21990;42.540;23.496;2024-01-30T04:28:37;95345.47;;;-0.79;72.16
35888;BME280;21990;42.540;23.496;2024-01-30T04:31:03;95347.84;;;-0.81;71.96
35888;BME280;21990;42.540;23.496;2024-01-30T04:33:28;95342.00;;;-0.86;71.18
35888;BME280;21990;42.540;23.496;2024-01-30T04:35:54;95347.59;;;-0.90;71.56
35888;BME280;21990;42.540;23.496;2024-01-30T04:38:19;95340.84;;;-0.89;71.71
35888;BME280;21990;42.540;23.496;2024-01-30T04:40:45;95348.63;;;-0.80;71.33
35888;BME280;21990;42.540;23.496;2024-01-30T04:43:10;95350.94;;;-0.75;71.32
35888;BME280;21990;42.540;23.496;2024-01-30T04:45:36;95349.81;;;-0.78;71.01
35888;BME280;21990;42.540;23.496;2024-01-30T04:48:01;95355.63;;;-0.72;71.17
35888;BME280;21990;42.540;23.496;2024-01-30T04:50:27;95355.69;;;-0.76;71.58
35888;BME280;21990;42.540;23.496;2024-01-30T04:52:53;95361.56;;;-0.70;71.35
35888;BME280;21990;42.540;23.496;2024-01-30T04:55:18;95362.31;;;-0.70;70.96
35888;BME280;21990;42.540;23.496;2024-01-30T04:57:44;95364.69;;;-0.68;70.56
35888;BME280;21990;42.540;23.496;2024-01-30T05:00:09;95365.41;;;-0.64;70.65
35888;BME280;21990;42.540;23.496;2024-01-30T05:02:35;95363.06;;;-0.66;70.59
35888;BME280;21990;42.540;23.496;2024-01-30T05:05:01;95368.19;;;-0.64;70.83
35888;BME280;21990;42.540;23.496;2024-01-30T05:07:26;95372.66;;;-0.74;70.72
35888;BME280;21990;42.540;23.496;2024-01-30T05:09:52;95375.00;;;-0.72;71.10
35888;BME280;21990;42.540;23.496;2024-01-30T05:12:17;95371.94;;;-0.78;71.31
35888;BME280;21990;42.540;23.496;2024-01-30T05:14:43;95373.50;;;-0.77;71.37
35888;BME280;21990;42.540;23.496;2024-01-30T05:17:08;95378.03;;;-0.90;70.50
35888;BME280;21990;42.540;23.496;2024-01-30T05:19:35;95376.00;;;-0.86;70.66
35888;BME280;21990;42.540;23.496;2024-01-30T05:22:01;95379.97;;;-0.87;70.97
35888;BME280;21990;42.540;23.496;2024-01-30T05:24:26;95394.16;;;-0.85;70.83
35888;BME280;21990;42.540;23.496;2024-01-30T05:26:52;95387.19;;;-0.97;71.25
35888;BME280;21990;42.540;23.496;2024-01-30T05:29:17;95394.88;;;-1.11;70.12
35888;BME280;21990;42.540;23.496;2024-01-30T05:31:43;95396.72;;;-1.01;70.74
35888;BME280;21990;42.540;23.496;2024-01-30T05:34:08;95401.38;;;-1.25;71.77
35888;BME280;21990;42.540;23.496;2024-01-30T05:36:34;95400.47;;;-1.15;70.86
35888;BME280;21990;42.540;23.496;2024-01-30T05:39:00;95389.53;;;-1.25;70.62
35888;BME280;21990;42.540;23.496;2024-01-30T05:41:26;95403.75;;;-1.27;71.16
35888;BME280;21990;42.540;23.496;2024-01-30T05:43:52;95396.72;;;-1.35;71.90
35888;BME280;21990;42.540;23.496;2024-01-30T05:46:17;95393.94;;;-1.31;72.21
35888;BME280;21990;42.540;23.496;2024-01-30T05:48:43;95400.91;;;-1.20;71.69
35888;BME280;21990;42.540;23.496;2024-01-30T05:51:08;95391.31;;;-1.12;71.40
35888;BME280;21990;42.540;23.496;2024-01-30T05:53:34;95382.97;;;-1.08;71.54
35888;BME280;21990;42.540;23.496;2024-01-30T05:56:03;95391.97;;;-1.01;71.49
35888;BME280;21990;42.540;23.496;2024-01-30T05:58:29;95381.06;;;-1.11;71.91
35888;BME280;21990;42.540;23.496;2024-01-30T06:00:54;95390.09;;;-1.07;71.44
35888;BME280;21990;42.540;23.496;2024-01-30T06:03:20;95393.25;;;-1.09;71.62
35888;BME280;21990;42.540;23.496;2024-01-30T06:05:46;95393.97;;;-1.01;70.69
35888;BME280;21990;42.540;23.496;2024-01-30T06:08:11;95398.31;;;-1.00;70.59
35888;BME280;21990;42.540;23.496;2024-01-30T06:10:37;95400.31;;;-1.04;71.35
35888;BME280;21990;42.540;23.496;2024-01-30T06:13:03;95386.91;;;-1.06;70.99
35888;BME280;21990;42.540;23.496;2024-01-30T06:15:28;95391.19;;;-0.98;71.00
35888;BME280;21990;42.540;23.496;2024-01-30T06:17:55;95387.47;;;-0.87;71.06
35888;BME280;21990;42.540;23.496;2024-01-30T06:20:20;95387.72;;;-0.75;70.72
35888;BME280;21990;42.540;23.496;2024-01-30T06:22:46;95377.31;;;-0.67;70.76
35888;BME280;21990;42.540;23.496;2024-01-30T06:25:12;95393.72;;;-0.26;71.95
35888;BME280;21990;42.540;23.496;2024-01-30T06:27:37;95381.94;;;-0.07;72.94
35888;BME280;21990;42.540;23.496;2024-01-30T06:30:04;95388.00;;;0.58;72.79
35888;BME280;21990;42.540;23.496;2024-01-30T06:32:30;95381.22;;;1.37;67.41
35888;BME280;21990;42.540;23.496;2024-01-30T06:35:00;95383.00;;;2.00;66.91
35888;BME280;21990;42.540;23.496;2024-01-30T06:37:25;95393.56;;;2.69;65.37
35888;BME280;21990;42.540;23.496;2024-01-30T06:39:51;95377.72;;;3.24;65.16
35888;BME280;21990;42.540;23.496;2024-01-30T06:42:18;95378.97;;;3.77;58.73
35888;BME280;21990;42.540;23.496;2024-01-30T06:44:43;95381.19;;;3.95;61.48
35888;BME280;21990;42.540;23.496;2024-01-30T06:47:09;95390.66;;;4.10;58.89
35888;BME280;21990;42.540;23.496;2024-01-30T06:49:35;95390.66;;;4.35;58.49
35888;BME280;21990;42.540;23.496;2024-01-30T06:52:05;95385.06;;;4.35;60.79
35888;BME280;21990;42.540;23.496;2024-01-30T06:54:30;95390.19;;;4.49;54.55
35888;BME280;21990;42.540;23.496;2024-01-30T06:56:56;95391.06;;;4.59;56.08
35888;BME280;21990;42.540;23.496;2024-01-30T06:59:21;95388.09;;;4.75;60.50
35888;BME280;21990;42.540;23.496;2024-01-30T07:01:47;95397.84;;;4.70;56.37
35888;BME280;21990;42.540;23.496;2024-01-30T07:04:12;95391.06;;;4.59;56.59
35888;BME280;21990;42.540;23.496;2024-01-30T07:06:38;95389.91;;;4.69;58.63
35888;BME280;21990;42.540;23.496;2024-01-30T07:09:03;95394.00;;;4.43;54.07
35888;BME280;21990;42.540;23.496;2024-01-30T07:11:30;95392.91;;;4.15;53.99
35888;BME280;21990;42.540;23.496;2024-01-30T07:13:55;95389.22;;;4.05;55.42
35888;BME280;21990;42.540;23.496;2024-01-30T07:16:21;95395.38;;;4.00;55.93
35888;BME280;21990;42.540;23.496;2024-01-30T07:18:47;95390.22;;;3.86;56.86
35888;BME280;21990;42.540;23.496;2024-01-30T07:21:13;95388.09;;;4.03;60.80
35888;BME280;21990;42.540;23.496;2024-01-30T07:23:38;95392.47;;;4.04;56.60
35888;BME280;21990;42.540;23.496;2024-01-30T07:26:05;95381.41;;;4.00;54.94
35888;BME280;21990;42.540;23.496;2024-01-30T07:28:31;95387.63;;;3.66;54.66
35888;BME280;21990;42.540;23.496;2024-01-30T07:30:57;95389.53;;;3.82;57.63
35888;BME280;21990;42.540;23.496;2024-01-30T07:33:23;95386.41;;;3.67;55.92
35888;BME280;21990;42.540;23.496;2024-01-30T07:35:48;95384.66;;;3.73;55.86
35888;BME280;21990;42.540;23.496;2024-01-30T07:38:14;95378.81;;;3.55;54.20
35888;BME280;21990;42.540;23.496;2024-01-30T07:40:39;95388.31;;;3.58;53.64
35888;BME280;21990;42.540;23.496;2024-01-30T07:43:05;95388.16;;;3.49;55.14
35888;BME280;21990;42.540;23.496;2024-01-30T07:45:30;95383.94;;;3.15;53.30
35888;BME280;21990;42.540;23.496;2024-01-30T07:47:59;95388.13;;;2.95;52.64
35888;BME280;21990;42.540;23.496;2024-01-30T07:50:27;95393.09;;;2.87;58.51
35888;BME280;21990;42.540;23.496;2024-01-30T07:52:53;95399.81;;;2.73;53.13
35888;BME280;21990;42.540;23.496;2024-01-30T07:55:20;95394.94;;;2.61;54.95
35888;BME280;21990;42.540;23.496;2024-01-30T07:57:52;95392.16;;;2.61;55.21
35888;BME280;21990;42.540;23.496;2024-01-30T08:00:21;95396.44;;;2.66;56.11
35888;BME280;21990;42.540;23.496;2024-01-30T08:02:47;95397.91;;;2.70;56.91
35888;BME280;21990;42.540;23.496;2024-01-30T08:05:13;95399.81;;;2.57;55.94
35888;BME280;21990;42.540;23.496;2024-01-30T08:07:41;95394.72;;;2.56;57.11
35888;BME280;21990;42.540;23.496;2024-01-30T08:10:07;95383.03;;;2.61;55.89
35888;BME280;21990;42.540;23.496;2024-01-30T08:12:33;95390.19;;;2.62;55.35
35888;BME280;21990;42.540;23.496;2024-01-30T08:14:58;95382.44;;;2.53;56.39
35888;BME280;21990;42.540;23.496;2024-01-30T08:17:24;95376.63;;;2.48;55.88
35888;BME280;21990;42.540;23.496;2024-01-30T08:19:49;95382.81;;;2.39;56.19
35888;BME280;21990;42.540;23.496;2024-01-30T08:22:15;95378.63;;;2.47;55.45
35888;BME280;21990;42.540;23.496;2024-01-30T08:24:41;95377.06;;;2.46;56.50
35888;BME280;21990;42.540;23.496;2024-01-30T08:27:07;95369.97;;;2.45;55.91
35888;BME280;21990;42.540;23.496;2024-01-30T08:29:35;95375.56;;;2.58;55.75
35888;BME280;21990;42.540;23.496;2024-01-30T08:32:01;95384.59;;;2.62;54.94
35888;BME280;21990;42.540;23.496;2024-01-30T08:34:26;95380.19;;;2.64;54.20
35888;BME280;21990;42.540;23.496;2024-01-30T08:36:52;95393.75;;;2.62;54.96
35888;BME280;21990;42.540;23.496;2024-01-30T08:39:18;95387.31;;;2.49;54.21
35888;BME280;21990;42.540;23.496;2024-01-30T08:41:43;95377.94;;;2.43;56.94
35888;BME280;21990;42.540;23.496;2024-01-30T08:44:09;95390.81;;;2.37;56.95
35888;BME280;21990;42.540;23.496;2024-01-30T08:46:36;95395.50;;;2.40;55.18
35888;BME280;21990;42.540;23.496;2024-01-30T08:49:02;95394.56;;;2.30;56.42
35888;BME280;21990;42.540;23.496;2024-01-30T08:51:29;95387.88;;;2.28;54.96
35888;BME280;21990;42.540;23.496;2024-01-30T08:53:54;95385.59;;;2.23;54.99
35888;BME280;21990;42.540;23.496;2024-01-30T08:56:20;95384.22;;;2.31;57.06
35888;BME280;21990;42.540;23.496;2024-01-30T08:58:45;95386.13;;;2.18;56.18
35888;BME280;21990;42.540;23.496;2024-01-30T09:01:11;95383.97;;;2.09;56.62
35888;BME280;21990;42.540;23.496;2024-01-30T09:03:36;95385.69;;;2.03;56.83
35888;BME280;21990;42.540;23.496;2024-01-30T09:06:08;95390.28;;;2.26;56.86
35888;BME280;21990;42.540;23.496;2024-01-30T09:08:34;95379.59;;;2.41;57.52
35888;BME280;21990;42.540;23.496;2024-01-30T09:10:59;95391.06;;;2.43;56.80
35888;BME280;21990;42.540;23.496;2024-01-30T09:13:25;95387.69;;;2.35;56.17
35888;BME280;21990;42.540;23.496;2024-01-30T09:15:50;95395.16;;;2.22;56.59
35888;BME280;21990;42.540;23.496;2024-01-30T09:18:16;95395.41;;;2.11;56.75
35888;BME280;21990;42.540;23.496;2024-01-30T09:20:41;95400.56;;;2.13;56.27
35888;BME280;21990;42.540;23.496;2024-01-30T09:23:07;95394.63;;;1.95;55.98
35888;BME280;21990;42.540;23.496;2024-01-30T09:25:33;95395.75;;;1.81;56.12
35888;BME280;21990;42.540;23.496;2024-01-30T09:27:59;95388.78;;;1.73;57.16
35888;BME280;21990;42.540;23.496;2024-01-30T09:30:25;95385.66;;;1.71;57.44
35888;BME280;21990;42.540;23.496;2024-01-30T09:32:53;95386.16;;;1.66;57.39
35888;BME280;21990;42.540;23.496;2024-01-30T09:35:18;95388.84;;;1.69;59.13
35888;BME280;21990;42.540;23.496;2024-01-30T09:37:44;95381.56;;;1.75;59.44
35888;BME280;21990;42.540;23.496;2024-01-30T09:40:09;95379.31;;;1.70;57.79
35888;BME280;21990;42.540;23.496;2024-01-30T09:42:36;95368.63;;;1.69;58.80
35888;BME280;21990;42.540;23.496;2024-01-30T09:45:03;95360.34;;;1.49;59.05
35888;BME280;21990;42.540;23.496;2024-01-30T09:47:39;95371.53;;;1.46;59.89
35888;BME280;21990;42.540;23.496;2024-01-30T09:50:06;95368.03;;;1.41;61.47
35888;BME280;21990;42.540;23.496;2024-01-30T09:52:32;95383.72;;;1.52;61.36
35888;BME280;21990;42.540;23.496;2024-01-30T09:54:59;95380.56;;;1.50;61.81
35888;BME280;21990;42.540;23.496;2024-01-30T09:57:25;95370.25;;;1.50;60.97
35888;BME280;21990;42.540;23.496;2024-01-30T09:59:51;95363.22;;;1.62;59.33
35888;BME280;21990;42.540;23.496;2024-01-30T10:02:19;95362.25;;;1.52;59.99
35888;BME280;21990;42.540;23.496;2024-01-30T10:04:48;95360.69;;;1.51;60.43
35888;BME280;21990;42.540;23.496;2024-01-30T10:07:14;95364.69;;;1.50;61.67
35888;BME280;21990;42.540;23.496;2024-01-30T10:09:39;95367.72;;;1.56;61.22
35888;BME280;21990;42.540;23.496;2024-01-30T10:12:05;95365.13;;;1.65;61.30
35888;BME280;21990;42.540;23.496;2024-01-30T10:14:31;95361.16;;;1.66;60.45
35888;BME280;21990;42.540;23.496;2024-01-30T10:16:57;95359.41;;;1.72;60.37
35888;BME280;21990;42.540;23.496;2024-01-30T10:19:23;95364.28;;;1.68;59.76
35888;BME280;21990;42.540;23.496;2024-01-30T10:21:49;95364.19;;;1.71;59.73
35888;BME280;21990;42.540;23.496;2024-01-30T10:24:14;95362.66;;;1.70;59.56
35888;BME280;21990;42.540;23.496;2024-01-30T10:26:40;95363.91;;;1.50;60.61
35888;BME280;21990;42.540;23.496;2024-01-30T10:29:06;95367.03;;;1.52;61.97
35888;BME280;21990;42.540;23.496;2024-01-30T10:31:31;95358.47;;;1.62;61.47
35888;BME280;21990;42.540;23.496;2024-01-30T10:33:57;95367.84;;;1.68;60.60
35888;BME280;21990;42.540;23.496;2024-01-30T10:36:28;95362.72;;;1.67;61.32
35888;BME280;21990;42.540;23.496;2024-01-30T10:38:55;95364.03;;;1.62;61.91
35888;BME280;21990;42.540;23.496;2024-01-30T10:41:27;95355.72;;;1.42;61.48
35888;BME280;21990;42.540;23.496;2024-01-30T10:44:22;95362.59;;;1.54;62.12
35888;BME280;21990;42.540;23.496;2024-01-30T10:46:51;95360.41;;;1.46;60.84
35888;BME280;21990;42.540;23.496;2024-01-30T10:49:21;95345.66;;;1.49;62.63
35888;BME280;21990;42.540;23.496;2024-01-30T10:51:47;95353.44;;;1.37;62.04
35888;BME280;21990;42.540;23.496;2024-01-30T10:54:15;95345.41;;;1.43;61.69
35888;BME280;21990;42.540;23.496;2024-01-30T10:56:42;95358.75;;;1.48;60.80
35888;BME280;21990;42.540;23.496;2024-01-30T10:59:08;95358.72;;;1.52;61.69
35888;BME280;21990;42.540;23.496;2024-01-30T11:01:35;95352.28;;;1.55;61.17
35888;BME280;21990;42.540;23.496;2024-01-30T11:04:00;95339.63;;;1.34;62.17
35888;BME280;21990;42.540;23.496;2024-01-30T11:06:26;95341.91;;;1.39;61.46
35888;BME280;21990;42.540;23.496;2024-01-30T11:09:05;95338.69;;;1.40;61.38
35888;BME280;21990;42.540;23.496;2024-01-30T11:11:57;95337.84;;;1.43;62.88
35888;BME280;21990;42.540;23.496;2024-01-30T11:14:28;95337.38;;;1.29;64.43
35888;BME280;21990;42.540;23.496;2024-01-30T11:16:57;95332.56;;;1.49;63.63
35888;BME280;21990;42.540;23.496;2024-01-30T11:19:27;95329.81;;;1.65;63.95
35888;BME280;21990;42.540;23.496;2024-01-30T11:21:53;95334.66;;;1.61;63.48
35888;BME280;21990;42.540;23.496;2024-01-30T11:24:25;95332.31;;;1.76;64.05
35888;BME280;21990;42.540;23.496;2024-01-30T11:26:58;95330.09;;;1.71;64.11
35888;BME280;21990;42.540;23.496;2024-01-30T11:29:25;95333.69;;;1.52;64.17
35888;BME280;21990;42.540;23.496;2024-01-30T11:31:55;95338.66;;;1.76;63.78
35888;BME280;21990;42.540;23.496;2024-01-30T11:34:21;95341.81;;;1.78;62.47
35888;BME280;21990;42.540;23.496;2024-01-30T11:36:56;95337.09;;;1.91;62.48
35888;BME280;21990;42.540;23.496;2024-01-30T11:39:27;95336.69;;;1.93;61.55
35888;BME280;21990;42.540;23.496;2024-01-30T11:41:54;95325.06;;;1.98;60.84
35888;BME280;21990;42.540;23.496;2024-01-30T11:44:20;95315.56;;;1.79;59.46
35888;BME280;21990;42.540;23.496;2024-01-30T11:46:50;95317.72;;;1.72;60.20
35888;BME280;21990;42.540;23.496;2024-01-30T11:49:16;95313.84;;;1.85;61.46
35888;BME280;21990;42.540;23.496;2024-01-30T11:51:43;95313.94;;;1.82;63.15
35888;BME280;21990;42.540;23.496;2024-01-30T11:54:10;95319.22;;;1.92;59.95
35888;BME280;21990;42.540;23.496;2024-01-30T11:56:37;95316.88;;;1.91;61.39
35888;BME280;21990;42.540;23.496;2024-01-30T11:59:02;95297.69;;;1.97;60.18
35888;BME280;21990;42.540;23.496;2024-01-30T12:01:28;95302.53;;;1.92;58.79
35888;BME280;21990;42.540;23.496;2024-01-30T12:03:53;95300.28;;;2.04;59.80
35888;BME280;21990;42.540;23.496;2024-01-30T12:06:19;95295.31;;;2.11;59.31
35888;BME280;21990;42.540;23.496;2024-01-30T12:09:01;95296.09;;;2.12;60.84
35888;BME280;21990;42.540;23.496;2024-01-30T12:11:31;95301.03;;;2.20;59.86
35888;BME280;21990;42.540;23.496;2024-01-30T12:13:57;95300.59;;;2.22;58.48
35888;BME280;21990;42.540;23.496;2024-01-30T12:16:23;95292.44;;;2.15;57.66
35888;BME280;21990;42.540;23.496;2024-01-30T12:18:48;95285.59;;;2.03;57.57
35888;BME280;21990;42.540;23.496;2024-01-30T12:21:17;95286.75;;;1.89;57.20
35888;BME280;21990;42.540;23.496;2024-01-30T12:23:44;95281.09;;;1.77;59.40
35888;BME280;21990;42.540;23.496;2024-01-30T12:26:10;95270.41;;;1.75;59.90
35888;BME280;21990;42.540;23.496;2024-01-30T12:28:36;95265.91;;;1.81;60.64
35888;BME280;21990;42.540;23.496;2024-01-30T12:31:03;95267.88;;;1.81;60.38
35888;BME280;21990;42.540;23.496;2024-01-30T12:33:29;95263.63;;;1.76;60.10
35888;BME280;21990;42.540;23.496;2024-01-30T12:35:56;95255.09;;;1.83;60.00
35888;BME280;21990;42.540;23.496;2024-01-30T12:38:22;95259.13;;;1.82;59.59
35888;BME280;21990;42.540;23.496;2024-01-30T12:40:49;95263.03;;;1.69;60.13
35888;BME280;21990;42.540;23.496;2024-01-30T12:43:15;95256.00;;;1.80;60.31
35888;BME280;21990;42.540;23.496;2024-01-30T12:45:41;95246.88;;;1.80;59.31
35888;BME280;21990;42.540;23.496;2024-01-30T12:48:07;95247.66;;;1.80;59.69
35888;BME280;21990;42.540;23.496;2024-01-30T12:50:32;95248.84;;;1.79;60.03